Time,TemperatureF,DewpointF,PressureIn,WindDirection,WindDirectionDegrees,WindSpeedMPH,WindSpeedGustMPH,Humidity,HourlyPrecipIn,Conditions,Clouds,dailyrainin,SoftwareType,DateUTC
2013-05-08 00:02:00,58.6,58.1,29.95,NW,311,0.0,3.0,98,0.00,,,0.26,meteohub,2013-05-07 22:02:00,
2013-05-08 00:32:00,58.1,57.6,29.96,SW,234,1.0,2.0,98,0.00,,,0.26,meteohub,2013-05-07 22:32:00,
2013-05-08 01:02:00,57.6,57.0,29.95,NE,56,0.0,3.0,98,0.00,,,0.26,meteohub,2013-05-07 23:02:00,
2013-05-08 01:32:00,57.2,56.7,29.95,NE,56,0.0,1.0,98,0.00,,,0.26,meteohub,2013-05-07 23:32:00,
2013-05-08 02:02:00,56.5,55.9,29.95,NE,56,0.0,2.0,98,0.00,,,0.26,meteohub,2013-05-08 00:02:00,
2013-05-08 02:32:00,55.9,55.4,29.94,NE,56,0.0,3.0,98,0.00,,,0.00,meteohub,2013-05-08 00:32:00,
2013-05-08 03:02:00,55.6,55.2,29.94,NE,56,2.0,3.0,99,0.00,,,0.00,meteohub,2013-05-08 01:02:00,
2013-05-08 03:32:00,54.9,54.3,29.94,NE,56,1.0,1.0,98,0.01,,,0.01,meteohub,2013-05-08 01:32:00,
2013-05-08 04:02:00,54.7,54.3,29.94,NE,56,1.0,3.0,99,0.01,,,0.01,meteohub,2013-05-08 02:02:00,
2013-05-08 04:32:00,54.7,54.3,29.94,NE,56,0.0,1.0,99,0.00,,,0.01,meteohub,2013-05-08 02:32:00,
2013-05-08 05:02:00,54.7,54.3,29.94,NE,56,0.0,0.0,99,0.00,,,0.01,meteohub,2013-05-08 03:02:00,
2013-05-08 05:32:00,54.7,54.3,29.95,NE,56,0.0,3.0,99,0.00,,,0.01,meteohub,2013-05-08 03:32:00,
2013-05-08 06:02:00,54.9,54.5,29.95,NE,56,0.0,0.0,99,0.00,,,0.01,meteohub,2013-05-08 04:02:00,
2013-05-08 06:32:00,55.2,54.9,29.96,NE,56,0.0,2.0,99,0.00,,,0.01,meteohub,2013-05-08 04:32:00,
2013-05-08 07:02:00,55.9,55.6,29.96,NE,56,0.0,0.0,99,0.00,,,0.01,meteohub,2013-05-08 05:02:00,
2013-05-08 07:32:00,56.8,56.5,29.96,NE,54,2.0,3.0,99,0.00,,,0.01,meteohub,2013-05-08 05:32:00,
2013-05-08 08:02:00,57.4,57.0,29.97,NE,54,0.0,1.0,99,0.00,,,0.01,meteohub,2013-05-08 06:02:00,
2013-05-08 08:32:00,57.9,57.6,29.97,NE,54,0.0,2.0,99,0.00,,,0.01,meteohub,2013-05-08 06:32:00,
2013-05-08 09:02:00,58.5,58.1,29.98,NE,54,0.0,2.0,99,0.00,,,0.01,meteohub,2013-05-08 07:02:00,
2013-05-08 09:32:00,59.2,58.8,29.98,NE,54,0.0,2.0,99,0.00,,,0.01,meteohub,2013-05-08 07:32:00,
2013-05-08 10:02:00,60.4,60.1,29.99,NE,54,0.0,1.0,99,0.00,,,0.01,meteohub,2013-05-08 08:02:00,
2013-05-08 10:32:00,61.5,61.0,29.98,NE,54,0.0,1.0,98,0.00,,,0.01,meteohub,2013-05-08 08:32:00,
2013-05-08 11:02:00,64.0,61.0,29.98,North,0,3.0,4.0,90,0.00,,,0.01,meteohub,2013-05-08 09:02:00,
2013-05-08 11:32:00,66.6,61.2,29.97,ENE,73,2.0,3.0,83,0.00,,,0.01,meteohub,2013-05-08 09:32:00,
2013-05-08 12:02:00,69.1,61.5,29.96,SW,215,0.0,3.0,77,0.00,,,0.01,meteohub,2013-05-08 10:02:00,
2013-05-08 12:32:00,69.4,60.4,29.95,SSE,164,1.0,3.0,73,0.00,,,0.01,meteohub,2013-05-08 10:32:00,
2013-05-08 13:02:00,70.9,60.6,29.94,SW,234,0.0,5.0,70,0.00,,,0.01,meteohub,2013-05-08 11:02:00,
2013-05-08 13:32:00,73.0,60.6,29.93,South,179,2.0,5.0,65,0.00,,,0.01,meteohub,2013-05-08 11:32:00,
2013-05-08 14:02:00,74.1,58.5,29.92,SSE,165,3.0,10.0,58,0.00,,,0.01,meteohub,2013-05-08 12:02:00,
2013-05-08 14:32:00,73.9,57.2,29.91,SSE,150,4.0,12.0,56,0.00,,,0.01,meteohub,2013-05-08 12:32:00,
2013-05-08 15:02:00,73.8,58.1,29.91,SSE,148,3.0,9.0,58,0.00,,,0.01,meteohub,2013-05-08 13:02:00,
2013-05-08 15:32:00,73.8,58.1,29.90,SE,128,4.0,9.0,58,0.00,,,0.01,meteohub,2013-05-08 13:32:00,
2013-05-08 16:02:00,74.8,57.6,29.89,ESE,121,1.0,7.0,55,0.00,,,0.01,meteohub,2013-05-08 14:02:00,
2013-05-08 16:32:00,71.6,58.8,29.90,NNW,346,0.0,6.0,64,0.00,,,0.01,meteohub,2013-05-08 14:32:00,
2013-05-08 17:02:00,70.2,58.6,29.90,SW,219,4.0,4.0,67,0.00,,,0.01,meteohub,2013-05-08 15:02:00,
2013-05-08 17:32:00,70.3,59.7,29.90,SW,232,0.0,6.0,69,0.00,,,0.01,meteohub,2013-05-08 15:32:00,
2013-05-08 18:02:00,69.6,60.3,29.89,NW,321,0.0,4.0,72,0.00,,,0.01,meteohub,2013-05-08 16:02:00,
2013-05-08 18:32:00,68.2,59.9,29.90,NE,38,1.0,5.0,75,0.00,,,0.01,meteohub,2013-05-08 16:32:00,
2013-05-08 19:02:00,68.0,59.4,29.90,NNE,30,0.0,3.0,74,0.00,,,0.01,meteohub,2013-05-08 17:02:00,
2013-05-08 19:32:00,66.6,59.9,29.90,West,272,0.0,2.0,79,0.00,,,0.01,meteohub,2013-05-08 17:32:00,
2013-05-08 20:02:00,64.6,59.9,29.90,NW,325,2.0,3.0,85,0.00,,,0.01,meteohub,2013-05-08 18:02:00,
2013-05-08 20:32:00,63.0,59.0,29.91,NW,324,0.0,1.0,87,0.00,,,0.01,meteohub,2013-05-08 18:32:00,
2013-05-08 21:02:00,61.0,58.3,29.92,NW,325,0.0,2.0,91,0.00,,,0.01,meteohub,2013-05-08 19:02:00,
2013-05-08 21:32:00,59.2,57.2,29.92,North,5,2.0,4.0,93,0.00,,,0.01,meteohub,2013-05-08 19:32:00,
2013-05-08 22:02:00,58.3,56.5,29.93,NNE,18,2.0,3.0,94,0.00,,,0.01,meteohub,2013-05-08 20:02:00,
2013-05-08 22:32:00,57.6,56.1,29.93,North,5,0.0,4.0,95,0.00,,,0.01,meteohub,2013-05-08 20:32:00,
2013-05-08 23:02:00,56.7,55.6,29.93,North,5,1.0,4.0,96,0.00,,,0.01,meteohub,2013-05-08 21:02:00,
2013-05-08 23:32:00,56.1,55.2,29.94,North,5,2.0,4.0,97,0.00,,,0.01,meteohub,2013-05-08 21:32:00,